createdAt,value
2022-10-19T00:00:13.100Z,93259.38
2022-10-19T00:02:42.471Z,93268.84
2022-10-19T00:05:11.901Z,93261.09
2022-10-19T00:07:41.390Z,93253.28
2022-10-19T00:10:12.868Z,93258.44
2022-10-19T00:12:42.272Z,93249.13
2022-10-19T00:15:12.563Z,93243.31
2022-10-19T00:17:43.475Z,93239.84
2022-10-19T00:20:14.568Z,93245.94
2022-10-19T00:22:44.000Z,93236.44
2022-10-19T00:25:14.853Z,93232.94
2022-10-19T00:27:44.790Z,93230.72
2022-10-19T00:30:14.159Z,93227.59
2022-10-19T00:32:43.418Z,93224.19
2022-10-19T00:35:12.845Z,93218.94
2022-10-19T00:37:42.206Z,93213.78
2022-10-19T00:40:14.373Z,93207.81
2022-10-19T00:42:43.670Z,93203.50
2022-10-19T00:45:18.370Z,93211.41
2022-10-19T00:47:49.351Z,93199.38
2022-10-19T00:51:35.611Z,93194.16
2022-10-19T00:54:08.122Z,93182.31
2022-10-19T00:56:41.291Z,93180.94
2022-10-19T00:59:12.065Z,93181.09
2022-10-19T01:01:41.496Z,93172.56
2022-10-19T01:04:11.745Z,93174.13
2022-10-19T01:06:44.129Z,93167.25
2022-10-19T01:09:13.591Z,93165.69
2022-10-19T01:11:53.610Z,93165.03
2022-10-19T01:14:42.407Z,93166.66
2022-10-19T01:17:22.391Z,93164.31
2022-10-19T01:20:57.205Z,93160.84
2022-10-19T01:24:37.007Z,93159.16
2022-10-19T01:27:49.265Z,93155.09
2022-10-19T01:30:44.243Z,93152.50
2022-10-19T01:33:33.436Z,93154.41
2022-10-19T01:36:15.244Z,93148.19
2022-10-19T01:38:57.866Z,93150.22
2022-10-19T01:41:37.845Z,93145.03
2022-10-19T01:44:18.326Z,93144.84
2022-10-19T01:46:54.266Z,93145.63
2022-10-19T01:49:39.932Z,93132.81
2022-10-19T01:52:14.206Z,93133.75
2022-10-19T01:54:49.009Z,93135.50
2022-10-19T01:57:24.329Z,93131.34
2022-10-19T01:59:55.846Z,93128.78
2022-10-19T02:02:28.545Z,93127.19
2022-10-19T02:04:59.932Z,93125.38
2022-10-19T02:07:30.351Z,93120.31
2022-10-19T02:09:59.935Z,93118.72
2022-10-19T02:12:33.628Z,93110.03
2022-10-19T02:15:11.064Z,93108.25
2022-10-19T02:17:48.047Z,93102.19
2022-10-19T02:20:18.846Z,93105.00
2022-10-19T02:22:48.388Z,93111.03
2022-10-19T02:25:18.226Z,93108.59
2022-10-19T02:27:47.945Z,93101.81
2022-10-19T02:30:19.805Z,93106.06
2022-10-19T02:32:52.053Z,93105.22
2022-10-19T02:35:22.774Z,93094.22
2022-10-19T02:37:52.247Z,93095.84
2022-10-19T02:40:22.325Z,93100.34
2022-10-19T02:42:58.314Z,93093.50
2022-10-19T02:45:32.346Z,93092.53
2022-10-19T02:48:07.845Z,93090.06
2022-10-19T02:50:37.602Z,93087.81
2022-10-19T02:53:06.891Z,93085.25
2022-10-19T02:55:36.700Z,93089.97
2022-10-19T02:58:06.127Z,93083.88
2022-10-19T03:00:35.533Z,93084.09
2022-10-19T03:03:06.484Z,93080.69
2022-10-19T03:05:35.861Z,93084.16
2022-10-19T03:08:05.291Z,93069.72
2022-10-19T03:10:34.710Z,93068.16
2022-10-19T03:13:04.204Z,93070.66
2022-10-19T03:15:33.590Z,93058.84
2022-10-19T03:18:04.358Z,93062.47
2022-10-19T03:20:33.724Z,93067.50
2022-10-19T03:23:03.113Z,93052.13
2022-10-19T03:25:32.432Z,93053.72
2022-10-19T03:28:02.056Z,93052.78
2022-10-19T03:30:31.505Z,93054.38
2022-10-19T03:33:00.781Z,93057.81
2022-10-19T03:35:31.509Z,93054.72
2022-10-19T03:38:00.809Z,93059.16
2022-10-19T03:40:30.143Z,93059.22
2022-10-19T03:42:59.677Z,93061.03
2022-10-19T03:45:28.924Z,93053.59
2022-10-19T03:47:58.465Z,93048.22
2022-10-19T03:52:32.586Z,93042.47
2022-10-19T03:55:01.966Z,93037.25
2022-10-19T03:57:31.593Z,93040.66
2022-10-19T04:00:01.222Z,93035.41
2022-10-19T04:02:31.485Z,93038.91
2022-10-19T04:05:00.828Z,93035.59
2022-10-19T04:07:31.995Z,93036.50
2022-10-19T04:10:01.751Z,93027.72
2022-10-19T04:12:31.048Z,93036.06
2022-10-19T04:15:00.391Z,93027.53
2022-10-19T04:17:29.727Z,93029.25
2022-10-19T04:19:59.005Z,93027.41
2022-10-19T04:22:28.428Z,93025.88
2022-10-19T04:24:59.188Z,93020.16
2022-10-19T04:27:28.743Z,93027.03
2022-10-19T04:29:58.047Z,93021.94
2022-10-19T04:32:27.419Z,93019.44
2022-10-19T04:34:57.729Z,93015.13
2022-10-19T04:37:27.141Z,93023.84
2022-10-19T04:39:57.912Z,93015.28
2022-10-19T04:42:27.144Z,93016.25
2022-10-19T04:44:56.505Z,93014.81
2022-10-19T04:47:25.974Z,93016.47
2022-10-19T04:49:55.381Z,93016.31
2022-10-19T04:52:24.790Z,93009.97
2022-10-19T04:54:54.205Z,93010.88
2022-10-19T04:57:25.033Z,93012.47
2022-10-19T04:59:54.324Z,93013.44
2022-10-19T05:02:23.566Z,93012.63
2022-10-19T05:04:52.831Z,93018.34
2022-10-19T05:07:22.170Z,93011.63
2022-10-19T05:09:51.461Z,93012.44
2022-10-19T05:12:21.025Z,93013.19
2022-10-19T05:14:51.688Z,93014.53
2022-10-19T05:17:20.986Z,93008.97
2022-10-19T05:19:50.234Z,93013.09
2022-10-19T05:22:19.707Z,93016.38
2022-10-19T05:24:53.306Z,93017.03
2022-10-19T05:27:25.325Z,93010.63
2022-10-19T05:29:56.228Z,93002.69
2022-10-19T05:32:25.480Z,93001.75
2022-10-19T05:34:55.092Z,93003.00
2022-10-19T05:37:25.931Z,93006.66
2022-10-19T05:39:56.709Z,93019.13
2022-10-19T05:42:26.065Z,93012.66
2022-10-19T05:44:56.709Z,93012.03
2022-10-19T05:47:28.653Z,93012.97
2022-10-19T05:50:00.292Z,93009.72
2022-10-19T05:52:30.727Z,93011.50
2022-10-19T05:55:00.024Z,93009.81
2022-10-19T05:57:29.211Z,93010.72
2022-10-19T05:59:59.924Z,93004.69
2022-10-19T06:02:29.172Z,93008.25
2022-10-19T06:04:58.615Z,93009.03
2022-10-19T06:07:27.948Z,93004.56
2022-10-19T06:09:57.205Z,93010.88
2022-10-19T06:12:26.502Z,93003.81
2022-10-19T06:14:55.743Z,93004.63
2022-10-19T06:17:26.434Z,93007.94
2022-10-19T06:19:55.953Z,93006.75
2022-10-19T06:22:25.328Z,92997.78
2022-10-19T06:24:54.745Z,92999.88
2022-10-19T06:27:24.198Z,93001.19
2022-10-19T06:29:53.508Z,93003.19
2022-10-19T06:32:22.881Z,93006.22
2022-10-19T06:34:56.388Z,92999.47
2022-10-19T06:37:26.348Z,92999.88
2022-10-19T06:39:55.655Z,92996.88
2022-10-19T06:42:24.983Z,92991.84
2022-10-19T06:44:54.216Z,92989.44
2022-10-19T06:47:48.766Z,92995.41
2022-10-19T06:52:32.588Z,92992.47
2022-10-19T06:55:06.369Z,92992.22
2022-10-19T06:57:36.021Z,92981.84
2022-10-19T07:00:07.758Z,92981.47
2022-10-19T07:02:37.213Z,92983.97
2022-10-19T07:05:08.440Z,92980.59
2022-10-19T07:07:39.348Z,92980.72
2022-10-19T07:10:09.871Z,92972.81
2022-10-19T07:12:39.233Z,92978.16
2022-10-19T07:15:10.285Z,92983.34
2022-10-19T07:17:40.864Z,92980.09
2022-10-19T07:20:12.125Z,92977.41
2022-10-19T07:22:42.875Z,92983.81
2022-10-19T07:25:12.272Z,92968.94
2022-10-19T07:27:41.917Z,92971.31
2022-10-19T07:30:12.286Z,92964.09
2022-10-19T07:32:46.663Z,92970.84
2022-10-19T07:35:16.755Z,92969.16
2022-10-19T07:37:47.494Z,92962.16
2022-10-19T07:40:16.875Z,92960.28
2022-10-19T07:42:46.325Z,92961.63
2022-10-19T07:45:15.966Z,92957.22
2022-10-19T07:47:46.716Z,92965.44
2022-10-19T07:50:16.096Z,92960.81
2022-10-19T07:52:47.876Z,92956.28
2022-10-19T07:55:17.470Z,92954.75
2022-10-19T07:57:49.833Z,92944.91
2022-10-19T08:00:19.792Z,92956.91
2022-10-19T08:02:59.819Z,92951.91
2022-10-19T08:05:39.012Z,92939.69
2022-10-19T08:08:09.867Z,92946.66
2022-10-19T08:10:39.323Z,92945.22
2022-10-19T08:13:08.764Z,92943.06
2022-10-19T08:15:38.283Z,92934.75
2022-10-19T08:18:07.718Z,92945.78
2022-10-19T08:20:37.092Z,92941.81
2022-10-19T08:23:06.545Z,92943.13
2022-10-19T08:25:37.693Z,92935.38
2022-10-19T08:28:07.219Z,92931.72
2022-10-19T08:30:37.369Z,92926.34
2022-10-19T08:33:08.455Z,92924.41
2022-10-19T08:35:38.200Z,92927.53
2022-10-19T08:38:07.732Z,92926.47
2022-10-19T08:40:39.035Z,92932.38
2022-10-19T08:43:18.087Z,92930.97
2022-10-19T08:45:53.599Z,92923.19
2022-10-19T08:48:30.499Z,92928.41
2022-10-19T08:51:01.666Z,92921.53
2022-10-19T08:53:41.338Z,92925.72
2022-10-19T08:56:49.228Z,92925.06
2022-10-19T08:59:29.499Z,92926.06
2022-10-19T09:02:03.909Z,92924.25
2022-10-19T09:04:38.295Z,92925.09
2022-10-19T09:07:27.127Z,92924.63
2022-10-19T09:10:03.208Z,92932.84
2022-10-19T09:12:46.706Z,92919.56
2022-10-19T09:15:20.889Z,92924.38
2022-10-19T09:17:50.257Z,92914.78
2022-10-19T09:20:22.979Z,92919.63
2022-10-19T09:23:07.607Z,92905.31
2022-10-19T09:25:41.146Z,92904.66
2022-10-19T09:28:36.657Z,92897.41
2022-10-19T09:31:15.091Z,92907.13
2022-10-19T09:33:46.721Z,92902.16
2022-10-19T09:36:22.935Z,92895.75
2022-10-19T09:38:57.467Z,92906.81
2022-10-19T09:41:27.643Z,92905.00
2022-10-19T09:43:59.365Z,92902.81
2022-10-19T09:46:52.519Z,92892.78
2022-10-19T09:52:38.766Z,92894.78
2022-10-19T09:55:30.521Z,92900.28
2022-10-19T09:58:07.095Z,92890.34
2022-10-19T10:00:43.566Z,92886.38
2022-10-19T10:03:31.219Z,92886.72
2022-10-19T10:06:04.904Z,92892.66
2022-10-19T10:08:38.932Z,92881.94
2022-10-19T10:11:13.270Z,92882.53
2022-10-19T10:13:45.629Z,92876.44
2022-10-19T10:16:18.287Z,92871.34
2022-10-19T10:18:56.978Z,92867.53
2022-10-19T10:21:32.382Z,92871.50
2022-10-19T10:24:06.945Z,92865.22
2022-10-19T10:26:43.035Z,92860.97
2022-10-19T10:29:24.494Z,92855.50
2022-10-19T10:31:57.346Z,92851.19
2022-10-19T10:34:50.083Z,92859.97
2022-10-19T10:37:24.787Z,92848.06
2022-10-19T10:40:01.826Z,92846.69
2022-10-19T10:42:41.949Z,92853.97
2022-10-19T10:45:22.014Z,92841.06
2022-10-19T10:47:51.794Z,92847.03
2022-10-19T10:50:26.284Z,92840.75
2022-10-19T10:53:02.150Z,92840.75
2022-10-19T10:55:34.911Z,92840.72
2022-10-19T10:58:18.737Z,92831.97
2022-10-19T11:00:51.532Z,92838.44
2022-10-19T11:03:29.137Z,92825.56
2022-10-19T11:06:02.892Z,92818.25
2022-10-19T11:08:40.924Z,92822.22
2022-10-19T11:11:21.476Z,92819.41
2022-10-19T11:13:59.324Z,92823.09
2022-10-19T11:16:35.345Z,92820.28
2022-10-19T11:19:17.292Z,92812.66
2022-10-19T11:21:58.252Z,92815.97
2022-10-19T11:24:42.782Z,92811.28
2022-10-19T11:27:33.111Z,92806.41
2022-10-19T11:30:12.328Z,92809.88
2022-10-19T11:33:05.808Z,92804.91
2022-10-19T11:35:47.913Z,92806.06
2022-10-19T11:38:37.787Z,92803.22
2022-10-19T11:41:22.552Z,92804.06
2022-10-19T11:44:17.067Z,92800.19
2022-10-19T11:47:00.827Z,92800.41
2022-10-19T11:49:47.573Z,92792.59
2022-10-19T11:52:25.365Z,92789.66
2022-10-19T11:55:08.030Z,92787.13
2022-10-19T11:57:47.416Z,92784.03
2022-10-19T12:00:38.621Z,92780.56
2022-10-19T12:03:56.473Z,92778.75
2022-10-19T12:06:33.961Z,92774.47
2022-10-19T12:09:24.210Z,92774.28
2022-10-19T12:12:31.034Z,92772.44
2022-10-19T12:15:20.310Z,92780.38
2022-10-19T12:17:53.365Z,92778.69
2022-10-19T12:20:31.286Z,92779.16
2022-10-19T12:23:02.486Z,92777.16
2022-10-19T12:25:31.968Z,92779.16
2022-10-19T12:28:01.345Z,92774.69
2022-10-19T12:30:32.208Z,92777.44
2022-10-19T12:33:14.132Z,92761.59
2022-10-19T12:36:01.312Z,92756.31
2022-10-19T12:38:45.986Z,92752.66
2022-10-19T12:41:27.587Z,92744.06
2022-10-19T12:47:10.211Z,92745.25
2022-10-19T12:52:44.647Z,92742.69
2022-10-19T12:55:34.828Z,92750.41
2022-10-19T12:58:08.103Z,92745.69
2022-10-19T13:00:39.933Z,92745.44
2022-10-19T13:03:17.501Z,92750.91
2022-10-19T13:05:59.235Z,92752.72
2022-10-19T13:08:36.999Z,92754.31
2022-10-19T13:11:10.185Z,92749.72
2022-10-19T13:14:02.046Z,92755.59
2022-10-19T13:17:00.160Z,92754.56
2022-10-19T13:19:30.095Z,92754.81
2022-10-19T13:22:29.796Z,92753.16
2022-10-19T13:25:28.309Z,92757.53
2022-10-19T13:28:03.371Z,92751.88
2022-10-19T13:31:08.233Z,92762.19
2022-10-19T13:33:57.688Z,92750.97
2022-10-19T13:36:28.647Z,92761.00
2022-10-19T13:39:15.791Z,92757.00
2022-10-19T13:41:57.502Z,92755.53
2022-10-19T13:44:36.794Z,92750.03
2022-10-19T13:47:32.855Z,92746.22
2022-10-19T13:50:36.807Z,92746.81
2022-10-19T13:53:42.206Z,92743.25
2022-10-19T13:56:44.545Z,92740.50
2022-10-19T13:59:52.374Z,92751.47
2022-10-19T14:03:26.724Z,92751.38
2022-10-19T14:06:27.497Z,92742.13
2022-10-19T14:09:49.580Z,92743.28
2022-10-19T14:12:24.969Z,92745.28
2022-10-19T14:14:55.917Z,92740.16
2022-10-19T14:17:28.791Z,92730.59
2022-10-19T14:20:00.160Z,92728.94
2022-10-19T14:22:33.665Z,92722.47
2022-10-19T14:25:06.590Z,92730.53
2022-10-19T14:27:37.436Z,92732.19
2022-10-19T14:30:24.070Z,92733.59
2022-10-19T14:32:56.844Z,92736.94
2022-10-19T14:35:33.708Z,92736.81
2022-10-19T14:38:03.409Z,92733.19
2022-10-19T14:40:35.919Z,92736.78
2022-10-19T14:43:23.283Z,92735.00
2022-10-19T14:46:16.749Z,92737.66
2022-10-19T14:48:48.909Z,92745.66
2022-10-19T14:51:34.848Z,92740.13
2022-10-19T14:54:08.948Z,92743.97
2022-10-19T14:56:48.411Z,92738.31
2022-10-19T14:59:28.410Z,92744.75
2022-10-19T15:02:01.869Z,92737.69
2022-10-19T15:04:35.245Z,92738.31
2022-10-19T15:07:15.328Z,92742.09
2022-10-19T15:09:53.230Z,92731.13
2022-10-19T15:12:30.447Z,92734.81
2022-10-19T15:15:00.495Z,92726.44
2022-10-19T15:17:33.676Z,92736.63
2022-10-19T15:20:04.701Z,92742.16
2022-10-19T15:22:42.547Z,92735.22
2022-10-19T15:25:35.521Z,92728.59
2022-10-19T15:28:33.917Z,92731.38
2022-10-19T15:31:13.934Z,92745.28
2022-10-19T15:33:49.785Z,92749.19
2022-10-19T15:36:21.440Z,92757.53
2022-10-19T15:39:11.533Z,92753.97
2022-10-19T15:41:50.326Z,92760.53
2022-10-19T15:44:35.695Z,92764.56
2022-10-19T15:47:25.074Z,92768.59
2022-10-19T15:52:35.213Z,92773.09
2022-10-19T15:55:04.869Z,92781.72
2022-10-19T15:57:36.508Z,92782.28
2022-10-19T16:00:15.932Z,92780.94
2022-10-19T16:02:45.347Z,92792.16
2022-10-19T16:05:14.685Z,92801.16
2022-10-19T16:07:45.667Z,92795.41
2022-10-19T16:10:19.856Z,92803.88
2022-10-19T16:12:49.548Z,92813.44
2022-10-19T16:15:23.587Z,92809.66
2022-10-19T16:17:55.377Z,92814.19
2022-10-19T16:20:26.774Z,92810.06
2022-10-19T16:22:58.469Z,92814.22
2022-10-19T16:25:30.146Z,92810.50
2022-10-19T16:27:59.448Z,92817.28
2022-10-19T16:30:28.804Z,92821.16
2022-10-19T16:32:59.289Z,92821.16
2022-10-19T16:35:28.547Z,92827.72
2022-10-19T16:38:00.267Z,92825.75
2022-10-19T16:40:30.312Z,92824.59
2022-10-19T16:43:00.812Z,92829.59
2022-10-19T16:45:30.267Z,92828.66
2022-10-19T16:47:59.826Z,92825.59
2022-10-19T16:50:29.031Z,92830.19
2022-10-19T16:53:10.452Z,92830.41
2022-10-19T16:55:41.125Z,92840.91
2022-10-19T16:58:10.486Z,92834.56
2022-10-19T17:00:39.818Z,92843.63
2022-10-19T17:03:09.088Z,92841.34
2022-10-19T17:05:40.425Z,92845.19
2022-10-19T17:08:11.942Z,92843.78
2022-10-19T17:10:41.375Z,92843.06
2022-10-19T17:13:10.627Z,92848.09
2022-10-19T17:15:43.642Z,92844.09
2022-10-19T17:18:13.201Z,92844.47
2022-10-19T17:20:42.579Z,92846.97
2022-10-19T17:23:13.511Z,92851.13
2022-10-19T17:25:49.990Z,92856.16
2022-10-19T17:28:21.013Z,92854.22
2022-10-19T17:30:52.892Z,92859.09
2022-10-19T17:33:22.726Z,92854.06
2022-10-19T17:35:52.115Z,92857.75
2022-10-19T17:38:22.889Z,92857.09
2022-10-19T17:40:52.287Z,92866.19
2022-10-19T17:43:21.727Z,92861.56
2022-10-19T17:46:00.519Z,92861.75
2022-10-19T17:48:30.045Z,92866.31
2022-10-19T17:51:01.450Z,92862.78
2022-10-19T17:53:33.187Z,92868.91
2022-10-19T17:56:04.326Z,92851.09
2022-10-19T17:58:36.389Z,92856.75
2022-10-19T18:01:09.423Z,92865.38
2022-10-19T18:03:41.232Z,92859.34
2022-10-19T18:06:13.353Z,92862.47
2022-10-19T18:08:46.974Z,92866.63
2022-10-19T18:11:19.461Z,92864.94
2022-10-19T18:13:50.633Z,92861.63
2022-10-19T18:16:24.080Z,92863.50
2022-10-19T18:18:56.627Z,92867.81
2022-10-19T18:21:28.685Z,92863.00
2022-10-19T18:24:01.634Z,92865.03
2022-10-19T18:26:34.711Z,92861.88
2022-10-19T18:29:13.739Z,92864.66
2022-10-19T18:31:43.799Z,92870.81
2022-10-19T18:34:17.025Z,92862.97
2022-10-19T18:36:46.728Z,92863.69
2022-10-19T18:39:17.595Z,92856.25
2022-10-19T18:41:48.490Z,92856.19
2022-10-19T18:44:20.851Z,92866.81
2022-10-19T18:46:51.567Z,92867.63
2022-10-19T18:52:36.349Z,92884.53
2022-10-19T18:55:06.813Z,92878.78
2022-10-19T18:57:36.461Z,92880.63
2022-10-19T19:00:06.639Z,92882.38
2022-10-19T19:02:46.592Z,92879.88
2022-10-19T19:05:16.891Z,92881.13
2022-10-19T19:07:47.736Z,92882.81
2022-10-19T19:10:17.577Z,92878.66
2022-10-19T19:12:49.221Z,92882.13
2022-10-19T19:15:20.027Z,92884.81
2022-10-19T19:17:49.816Z,92883.16
2022-10-19T19:20:19.454Z,92881.41
2022-10-19T19:22:50.331Z,92889.31
2022-10-19T19:25:19.938Z,92893.56
2022-10-19T19:27:49.256Z,92898.69
2022-10-19T19:30:18.911Z,92895.94
2022-10-19T19:32:48.257Z,92894.50
2022-10-19T19:35:17.756Z,92897.50
2022-10-19T19:37:48.506Z,92895.44
2022-10-19T19:40:18.073Z,92896.53
2022-10-19T19:42:47.426Z,92895.19
2022-10-19T19:45:17.150Z,92906.81
2022-10-19T19:47:46.473Z,92904.91
2022-10-19T19:50:15.833Z,92907.22
2022-10-19T19:52:45.248Z,92903.19
2022-10-19T19:55:16.366Z,92905.72
2022-10-19T19:57:48.565Z,92910.97
2022-10-19T20:00:18.554Z,92906.88
2022-10-19T20:02:53.484Z,92912.31
2022-10-19T20:05:23.085Z,92917.72
2022-10-19T20:07:52.739Z,92915.25
2022-10-19T20:10:23.786Z,92914.41
2022-10-19T20:12:55.685Z,92910.31
2022-10-19T20:15:25.125Z,92908.81
2022-10-19T20:17:54.431Z,92906.94
2022-10-19T20:20:23.967Z,92912.56
2022-10-19T20:22:53.231Z,92909.06
2022-10-19T20:25:23.968Z,92913.06
2022-10-19T20:27:53.226Z,92912.06
2022-10-19T20:30:22.664Z,92908.91
2022-10-19T20:32:56.247Z,92906.53
2022-10-19T20:35:25.448Z,92902.22
2022-10-19T20:37:57.908Z,92905.06
2022-10-19T20:42:58.983Z,92904.78
2022-10-19T20:45:28.311Z,92903.16
2022-10-19T20:47:57.753Z,92914.13
2022-10-19T20:50:27.248Z,92906.03
2022-10-19T20:52:56.571Z,92902.63
2022-10-19T20:55:27.325Z,92898.75
2022-10-19T20:57:56.613Z,92896.03
2022-10-19T21:00:25.888Z,92900.44
2022-10-19T21:02:55.351Z,92900.81
2022-10-19T21:05:24.600Z,92903.41
2022-10-19T21:07:54.868Z,92909.41
2022-10-19T21:10:24.129Z,92907.91
2022-10-19T21:12:54.757Z,92908.09
2022-10-19T21:15:24.035Z,92906.59
2022-10-19T21:17:53.290Z,92903.41
2022-10-19T21:20:22.664Z,92903.88
2022-10-19T21:22:52.028Z,92909.72
2022-10-19T21:25:21.503Z,92913.06
2022-10-19T21:27:55.548Z,92911.22
2022-10-19T21:30:25.004Z,92903.41
2022-10-19T21:32:54.296Z,92916.34
2022-10-19T21:35:23.633Z,92907.44
2022-10-19T21:37:53.188Z,92907.75
2022-10-19T21:40:22.605Z,92899.94
2022-10-19T21:42:52.055Z,92896.53
2022-10-19T21:45:30.161Z,92894.00
2022-10-19T21:48:00.178Z,92892.41
2022-10-19T21:52:31.953Z,92908.22
2022-10-19T21:55:01.484Z,92903.53
2022-10-19T21:57:30.809Z,92906.72
2022-10-19T22:00:00.134Z,92907.25
2022-10-19T22:02:29.554Z,92908.91
2022-10-19T22:04:58.846Z,92912.91
2022-10-19T22:07:28.331Z,92896.66
2022-10-19T22:09:59.008Z,92910.75
2022-10-19T22:12:28.412Z,92911.97
2022-10-19T22:14:57.750Z,92910.59
2022-10-19T22:17:27.296Z,92914.09
2022-10-19T22:19:56.572Z,92919.97
2022-10-19T22:22:25.868Z,92924.16
2022-10-19T22:24:57.673Z,92919.22
2022-10-19T22:27:27.229Z,92912.97
2022-10-19T22:29:56.574Z,92911.53
2022-10-19T22:32:25.833Z,92910.22
2022-10-19T22:34:55.101Z,92909.63
2022-10-19T22:37:24.476Z,92918.22
2022-10-19T22:39:53.769Z,92920.09
2022-10-19T22:42:24.648Z,92925.50
2022-10-19T22:44:53.930Z,92933.56
2022-10-19T22:47:23.202Z,92933.34
2022-10-19T22:49:52.430Z,92928.69
2022-10-19T22:52:21.832Z,92926.28
2022-10-19T22:54:51.647Z,92927.25
2022-10-19T22:57:21.125Z,92933.56
2022-10-19T22:59:51.831Z,92929.00
2022-10-19T23:02:21.194Z,92922.22
2022-10-19T23:04:50.605Z,92932.75
2022-10-19T23:07:19.864Z,92922.63
2022-10-19T23:09:49.127Z,92926.34
2022-10-19T23:12:18.368Z,92927.16
2022-10-19T23:14:47.673Z,92929.63
2022-10-19T23:17:18.347Z,92940.19
2022-10-19T23:19:47.722Z,92935.16
2022-10-19T23:22:17.133Z,92934.31
2022-10-19T23:24:46.547Z,92947.19
2022-10-19T23:27:16.206Z,92946.41
2022-10-19T23:29:46.310Z,92944.38
2022-10-19T23:32:17.848Z,92947.69
2022-10-19T23:34:48.429Z,92945.34
2022-10-19T23:37:18.025Z,92941.78
2022-10-19T23:39:47.246Z,92940.19
2022-10-19T23:42:16.468Z,92955.81
2022-10-19T23:44:45.770Z,92945.66
2022-10-19T23:47:16.529Z,92938.97
2022-10-19T23:49:45.812Z,92940.50
2022-10-19T23:52:15.087Z,92937.22
2022-10-19T23:54:44.392Z,92937.22
2022-10-19T23:57:13.691Z,92942.44
2022-10-19T23:59:43.305Z,92942.53
